Time;durP1;ratioP1;P1;durP2;ratioP2;P2;SDS_P1;SDS_P2;PMS_P1;PMS_P2;Temp;Humidity;BMP_temperature;BMP_pressure;BME280_temperature;BME280_humidity;BME280_pressure;Samples;Min_cycle;Max_cycle;Signal;HPM_P1;HPM_P2
2022/08/08 00:00:34;;;;;;;4.97;3.70;;;20.60;76.50;;;;;;10405742;28;20107;-67
2022/08/08 00:05:41;;;;;;;5.72;3.50;;;20.60;76.50;;;;;;10406093;28;20455;-67
2022/08/08 00:11:22;;;;;;;6.18;3.20;;;20.50;76.50;;;;;;10405831;28;20025;-67
2022/08/08 00:16:28;;;;;;;6.03;3.10;;;20.50;76.60;;;;;;10389744;28;20558;-67
2022/08/08 00:21:44;;;;;;;4.50;2.95;;;20.40;76.50;;;;;;10405490;28;20033;-67
2022/08/08 00:26:50;;;;;;;5.20;3.28;;;20.40;76.60;;;;;;10405019;28;20534;-67
2022/08/08 00:31:56;;;;;;;3.88;2.65;;;20.40;76.60;;;;;;10405130;28;20034;-67
2022/08/08 00:37:05;;;;;;;3.47;2.47;;;20.30;76.60;;;;;;10412249;28;20021;-67
2022/08/08 00:42:57;;;;;;;4.97;2.80;;;20.30;76.70;;;;;;10410795;28;20120;-71
2022/08/08 00:48:08;;;;;;;4.47;2.70;;;20.30;76.80;;;;;;10434443;28;20041;-73
2022/08/08 00:53:11;;;;;;;4.88;2.60;;;20.20;76.70;;;;;;10412029;28;20369;-67
2022/08/08 00:58:43;;;;;;;3.40;2.40;;;20.20;76.70;;;;;;10411738;28;20035;-67
2022/08/08 01:03:59;;;;;;;3.95;2.75;;;20.20;76.80;;;;;;10411450;28;20474;-67
2022/08/08 01:09:44;;;;;;;3.20;2.35;;;20.10;77.30;;;;;;10411233;28;20469;-68
2022/08/08 01:15:09;;;;;;;3.63;2.40;;;20.10;76.90;;;;;;10411237;28;20033;-67
2022/08/08 01:20:35;;;;;;;3.95;2.25;;;20.10;76.90;;;;;;10410969;28;20029;-67
2022/08/08 01:26:01;;;;;;;3.13;2.30;;;20.10;76.90;;;;;;10410603;28;20046;-67
2022/08/08 01:31:35;;;;;;;2.83;2.30;;;20.00;76.80;;;;;;10410864;28;20469;-67
2022/08/08 01:37:05;;;;;;;3.38;2.67;;;20.00;76.90;;;;;;10409506;28;20095;-67
2022/08/08 01:42:38;;;;;;;3.85;2.28;;;20.00;76.80;;;;;;10418798;28;20041;-67
2022/08/08 01:48:16;;;;;;;3.03;2.35;;;20.00;76.90;;;;;;10416037;28;20520;-67
2022/08/08 01:53:40;;;;;;;3.88;2.60;;;20.00;77.00;;;;;;10410223;28;20064;-71
2022/08/08 01:59:09;;;;;;;3.63;2.30;;;19.90;76.90;;;;;;10409551;28;20441;-68
2022/08/08 02:04:36;;;;;;;3.90;2.45;;;19.90;76.90;;;;;;10409176;28;20132;-67
2022/08/08 02:10:12;;;;;;;3.20;2.40;;;19.80;77.00;;;;;;10409675;28;20049;-69
2022/08/08 02:15:23;;;;;;;3.65;2.25;;;19.80;77.00;;;;;;10409280;28;20064;-70
2022/08/08 02:22:30;;;;;;;3.55;2.50;;;19.80;76.90;;;;;;10408897;28;20030;-67
2022/08/08 02:26:16;;;;;;;2.58;1.90;;;19.80;77.00;;;;;;10409148;28;20060;-67
2022/08/08 02:31:41;;;;;;;2.95;2.17;;;19.70;77.00;;;;;;10408816;28;20045;-75
2022/08/08 02:37:02;;;;;;;4.03;2.50;;;19.70;77.10;;;;;;10408591;28;20045;-67
2022/08/08 02:42:24;;;;;;;3.38;2.60;;;19.70;77.20;;;;;;10428507;28;20052;-68
2022/08/08 02:47:46;;;;;;;2.78;2.13;;;19.70;77.20;;;;;;10408397;28;20034;-67
2022/08/08 02:53:15;;;;;;;2.92;2.13;;;19.70;77.20;;;;;;10408085;28;20041;-67
2022/08/08 02:58:25;;;;;;;3.10;2.00;;;19.60;77.10;;;;;;10407827;28;20022;-67
2022/08/08 03:03:49;;;;;;;3.20;2.30;;;19.60;77.10;;;;;;10407241;28;20150;-69
2022/08/08 03:09:27;;;;;;;4.28;2.10;;;19.60;77.10;;;;;;10407499;28;20029;-67
2022/08/08 03:14:37;;;;;;;2.85;2.35;;;19.50;77.20;;;;;;10407915;28;20033;-68
2022/08/08 03:19:59;;;;;;;2.40;2.15;;;19.50;77.20;;;;;;10407820;28;20078;-67
2022/08/08 03:25:05;;;;;;;3.28;2.20;;;19.50;77.20;;;;;;10407492;28;20076;-67
2022/08/08 03:30:11;;;;;;;2.58;1.77;;;19.50;77.20;;;;;;10407292;28;20488;-67
2022/08/08 03:35:12;;;;;;;2.17;1.98;;;19.50;77.30;;;;;;10406695;28;20090;-67
2022/08/08 03:40:14;;;;;;;3.25;2.10;;;19.40;77.20;;;;;;10406409;28;20062;-67
2022/08/08 03:45:19;;;;;;;3.25;2.10;;;19.40;77.20;;;;;;10406644;28;20393;-72
2022/08/08 03:50:21;;;;;;;2.45;2.00;;;19.40;77.30;;;;;;10406100;28;20036;-67
2022/08/08 03:55:23;;;;;;;2.15;1.92;;;19.30;77.20;;;;;;10406203;28;20029;-67
2022/08/08 04:00:26;;;;;;;2.42;1.95;;;19.30;77.20;;;;;;10405761;28;20045;-67
2022/08/08 04:05:35;;;;;;;2.67;2.00;;;19.30;77.20;;;;;;10406034;28;20033;-70
2022/08/08 04:10:36;;;;;;;2.88;1.95;;;19.30;77.90;;;;;;10405210;28;20112;-67
2022/08/08 04:15:37;;;;;;;3.15;1.80;;;19.30;77.30;;;;;;10405557;28;20088;-67
2022/08/08 04:20:38;;;;;;;2.55;1.90;;;19.30;77.30;;;;;;10387920;28;20043;-69
2022/08/08 04:25:39;;;;;;;1.88;1.70;;;19.20;77.20;;;;;;10401746;28;20515;-68
2022/08/08 04:30:40;;;;;;;3.40;2.03;;;19.20;77.30;;;;;;10395304;28;20026;-68
2022/08/08 04:35:41;;;;;;;2.67;1.83;;;19.20;77.30;;;;;;10395285;28;20034;-72
2022/08/08 04:40:42;;;;;;;2.20;2.00;;;19.20;77.30;;;;;;10395913;28;20036;-69
2022/08/08 04:45:43;;;;;;;2.80;1.55;;;19.10;77.20;;;;;;10395005;28;20129;-72
2022/08/08 04:50:43;;;;;;;1.90;1.70;;;19.20;77.40;;;;;;10395313;28;20025;-70
2022/08/08 04:55:44;;;;;;;3.08;1.80;;;19.20;77.40;;;;;;10394712;28;20117;-69
2022/08/08 05:00:45;;;;;;;1.75;1.50;;;19.10;77.30;;;;;;10394439;28;20057;-69
2022/08/08 05:05:46;;;;;;;2.28;1.83;;;19.10;77.40;;;;;;10394560;28;20431;-68
2022/08/08 05:10:46;;;;;;;2.80;1.70;;;19.10;77.40;;;;;;10394552;28;20029;-69
2022/08/08 05:15:47;;;;;;;2.35;1.70;;;19.10;77.50;;;;;;10376395;28;20033;-68
2022/08/08 05:20:48;;;;;;;1.95;1.60;;;19.10;77.50;;;;;;10396873;28;20137;-68
2022/08/08 05:25:50;;;;;;;2.13;1.58;;;19.10;77.50;;;;;;10400973;28;20111;-73
2022/08/08 05:30:51;;;;;;;3.03;1.65;;;19.10;77.50;;;;;;10400592;28;20047;-69
2022/08/08 05:35:53;;;;;;;2.00;1.80;;;19.10;77.50;;;;;;10400647;28;20149;-68
2022/08/08 05:40:57;;;;;;;2.85;1.75;;;19.10;77.60;;;;;;10400407;28;20048;-69
2022/08/08 05:46:00;;;;;;;2.47;1.52;;;19.10;77.60;;;;;;10400425;28;20423;-72
2022/08/08 05:51:01;;;;;;;2.42;1.20;;;19.10;77.60;;;;;;10400020;28;20362;-70
2022/08/08 05:56:02;;;;;;;2.05;1.50;;;19.10;77.60;;;;;;10400017;28;20030;-70
2022/08/08 06:01:03;;;;;;;2.60;1.60;;;19.10;77.70;;;;;;10399284;28;20092;-68
2022/08/08 06:06:08;;;;;;;2.20;1.60;;;19.10;77.70;;;;;;10399905;28;20074;-68
2022/08/08 06:11:09;;;;;;;2.17;1.25;;;19.10;77.70;;;;;;10399783;28;20422;-68
2022/08/08 06:16:15;;;;;;;1.60;1.40;;;19.10;77.80;;;;;;10399611;28;20453;-75
2022/08/08 06:21:18;;;;;;;1.92;1.42;;;19.10;77.80;;;;;;10399571;28;20045;-72
2022/08/08 06:26:22;;;;;;;2.40;1.50;;;19.20;77.90;;;;;;10399427;28;20097;-68
2022/08/08 06:31:28;;;;;;;1.70;1.50;;;19.10;77.90;;;;;;10398271;28;20033;-69
2022/08/08 06:36:36;;;;;;;1.52;1.40;;;19.20;77.90;;;;;;10397678;28;20021;-68
2022/08/08 06:41:55;;;;;;;1.42;1.33;;;19.20;77.90;;;;;;10397757;28;20037;-68
2022/08/08 06:46:57;;;;;;;1.40;1.25;;;19.20;78.50;;;;;;10397686;28;20128;-69
2022/08/08 06:51:59;;;;;;;2.65;1.67;;;19.20;77.90;;;;;;10397609;28;20116;-70
2022/08/08 06:57:01;;;;;;;1.40;1.30;;;19.20;77.70;;;;;;10395809;28;20018;-69
2022/08/08 07:02:03;;;;;;;2.42;1.15;;;19.20;77.70;;;;;;10379794;28;20394;-70
2022/08/08 07:07:08;;;;;;;1.88;1.40;;;19.30;77.70;;;;;;10397182;28;20052;-67
2022/08/08 07:12:18;;;;;;;3.00;1.20;;;19.30;77.70;;;;;;10397367;28;20029;-70
2022/08/08 07:17:24;;;;;;;1.52;1.30;;;19.30;77.70;;;;;;10396882;28;20730;-70
2022/08/08 07:22:37;;;;;;;1.40;1.30;;;18.90;77.40;;;;;;10395674;28;20401;-70
2022/08/08 07:27:50;;;;;;;1.40;1.10;;;19.40;77.70;;;;;;10397104;28;20374;-68
2022/08/08 07:32:52;;;;;;;1.40;1.30;;;19.40;77.80;;;;;;10396245;28;20033;-69
2022/08/08 07:37:57;;;;;;;2.83;1.10;;;19.50;77.80;;;;;;10395969;28;20078;-68
2022/08/08 07:43:01;;;;;;;1.58;1.13;;;19.40;77.60;;;;;;10395272;28;20044;-69
2022/08/08 07:48:02;;;;;;;2.42;1.20;;;19.40;77.50;;;;;;10396012;28;20029;-69
2022/08/08 07:53:22;;;;;;;3.72;1.35;;;19.50;77.60;;;;;;10395257;28;20088;-70
2022/08/08 07:58:53;;;;;;;2.45;1.45;;;19.50;77.70;;;;;;10395760;28;20017;-69
2022/08/08 08:04:02;;;;;;;1.17;1.08;;;19.50;77.80;;;;;;10402394;28;20121;-70
2022/08/08 08:09:24;;;;;;;1.58;1.30;;;19.60;77.70;;;;;;10394023;28;20081;-70
2022/08/08 08:14:45;;;;;;;1.40;1.20;;;19.60;77.80;;;;;;10376244;28;20128;-64
2022/08/08 08:19:51;;;;;;;1.38;1.02;;;19.70;77.70;;;;;;10394279;28;20497;-69
2022/08/08 08:24:52;;;;;;;1.63;1.20;;;19.80;77.80;;;;;;10392356;28;20505;-69
2022/08/08 08:29:53;;;;;;;1.83;1.10;;;19.70;77.80;;;;;;10394034;28;20017;-70
2022/08/08 08:34:54;;;;;;;2.65;1.20;;;19.70;77.70;;;;;;10393987;28;20069;-69
2022/08/08 08:39:55;;;;;;;1.73;1.33;;;19.80;77.70;;;;;;10392199;28;20029;-71
2022/08/08 08:44:57;;;;;;;1.77;1.20;;;19.80;77.70;;;;;;10392953;28;20045;-70
2022/08/08 08:49:59;;;;;;;3.58;1.40;;;19.80;77.80;;;;;;10375122;28;20065;-69
2022/08/08 08:55:01;;;;;;;2.20;1.33;;;19.80;77.80;;;;;;10395063;28;20516;-70
2022/08/08 09:00:02;;;;;;;1.60;1.05;;;19.80;77.80;;;;;;10400379;28;20118;-71
2022/08/08 09:05:08;;;;;;;1.20;1.10;;;19.80;78.40;;;;;;10399793;28;20072;-70
2022/08/08 09:10:13;;;;;;;1.95;1.30;;;19.80;77.80;;;;;;10400303;28;20038;-69
2022/08/08 09:15:15;;;;;;;1.83;1.10;;;19.90;77.80;;;;;;10400329;28;20021;-73
2022/08/08 09:20:18;;;;;;;1.15;0.90;;;19.90;77.80;;;;;;10399578;28;20065;-71
2022/08/08 09:25:19;;;;;;;1.88;1.17;;;20.00;77.70;;;;;;10399599;28;20083;-66
2022/08/08 09:30:23;;;;;;;1.10;1.00;;;20.10;77.60;;;;;;10399438;28;20116;-69
2022/08/08 09:35:29;;;;;;;1.13;1.02;;;20.20;77.60;;;;;;10399101;28;20513;-68
2022/08/08 09:40:33;;;;;;;1.98;1.08;;;20.20;77.50;;;;;;10398822;28;20034;-71
2022/08/08 09:45:42;;;;;;;2.17;1.13;;;20.20;77.60;;;;;;10398898;28;20169;-66
2022/08/08 09:50:45;;;;;;;1.42;1.25;;;20.20;77.80;;;;;;10398882;28;20041;-69
2022/08/08 09:55:46;;;;;;;1.48;0.98;;;20.20;77.80;;;;;;10398757;28;20040;-67
2022/08/08 10:00:48;;;;;;;2.53;1.15;;;20.20;77.90;;;;;;10398536;28;20504;-69
2022/08/08 10:05:49;;;;;;;1.48;1.10;;;20.20;77.80;;;;;;10396378;28;20118;-68
2022/08/08 10:10:57;;;;;;;2.47;1.13;;;20.20;77.60;;;;;;10397008;28;20037;-70
2022/08/08 10:16:00;;;;;;;1.55;1.42;;;20.20;77.50;;;;;;10397911;28;20077;-64
2022/08/08 10:21:04;;;;;;;2.55;0.85;;;20.60;76.60;;;;;;10397472;28;20038;-65
2022/08/08 10:26:08;;;;;;;2.63;0.90;;;20.70;76.00;;;;;;10397893;28;20029;-65
2022/08/08 10:36:32;;;;;;;2.70;1.00;;;20.80;75.50;;;;;;10397443;28;20152;-64
2022/08/08 10:41:36;;;;;;;1.88;1.00;;;20.70;75.90;;;;;;10396778;28;20080;-64
2022/08/08 10:46:37;;;;;;;2.45;0.95;;;20.60;76.40;;;;;;10396696;28;20105;-66
2022/08/08 10:51:38;;;;;;;1.92;1.20;;;20.50;77.20;;;;;;10396392;28;20029;-63
2022/08/08 10:56:39;;;;;;;4.78;0.98;;;20.50;77.90;;;;;;10397024;28;20026;-64
2022/08/08 11:01:45;;;;;;;2.80;1.02;;;20.60;77.80;;;;;;10396018;28;20053;-63
2022/08/08 11:06:47;;;;;;;2.75;0.82;;;21.00;77.60;;;;;;10396713;28;20034;-66
2022/08/08 11:11:51;;;;;;;1.73;0.98;;;21.00;77.50;;;;;;10395977;28;20061;-64
2022/08/08 11:16:53;;;;;;;1.73;1.00;;;20.90;77.50;;;;;;10394498;28;20077;-64
2022/08/08 11:21:54;;;;;;;2.70;1.02;;;21.10;77.30;;;;;;10395360;28;20056;-61
2022/08/08 11:26:59;;;;;;;3.88;1.00;;;21.30;77.10;;;;;;10395567;28;20039;-69
2022/08/08 11:32:02;;;;;;;3.25;0.88;;;21.90;76.70;;;;;;10395482;28;20040;-63
2022/08/08 11:37:04;;;;;;;2.47;0.93;;;21.60;76.00;;;;;;10395604;28;20037;-65
2022/08/08 11:42:06;;;;;;;2.22;1.08;;;21.60;76.00;;;;;;10394563;28;20095;-64
2022/08/08 11:47:07;;;;;;;2.35;0.98;;;21.40;76.40;;;;;;10394778;28;20049;-66
2022/08/08 11:52:08;;;;;;;1.98;1.00;;;21.30;76.70;;;;;;10395031;28;20029;-65
2022/08/08 11:57:20;;;;;;;3.60;1.10;;;21.20;77.20;;;;;;10395240;28;20516;-65
2022/08/08 12:02:26;;;;;;;1.98;1.05;;;21.20;78.20;;;;;;10394466;28;20049;-65
2022/08/08 12:07:27;;;;;;;1.88;1.67;;;21.20;78.70;;;;;;10395218;28;20089;-66
2022/08/08 12:12:34;;;;;;;3.08;1.10;;;21.40;78.60;;;;;;10394755;28;20071;-65
2022/08/08 12:17:36;;;;;;;1.92;1.20;;;21.60;78.40;;;;;;10394233;28;20124;-64
2022/08/08 12:22:48;;;;;;;2.20;1.00;;;21.60;78.00;;;;;;10394299;28;20045;-63
2022/08/08 12:27:50;;;;;;;1.77;1.20;;;21.80;77.70;;;;;;10394001;28;20178;-62
2022/08/08 12:32:53;;;;;;;5.03;1.30;;;21.90;77.30;;;;;;10401307;28;20066;-63
2022/08/08 12:38:06;;;;;;;3.22;1.10;;;22.00;76.90;;;;;;10401430;28;20085;-64
2022/08/08 12:43:07;;;;;;;4.60;1.42;;;21.90;76.70;;;;;;10400912;28;20127;-64
2022/08/08 12:48:23;;;;;;;3.60;1.30;;;21.90;76.80;;;;;;10400667;28;20030;-62
2022/08/08 12:53:27;;;;;;;1.98;1.20;;;22.30;76.30;;;;;;10401068;28;20110;-62
2022/08/08 12:58:45;;;;;;;2.47;1.00;;;22.40;76.00;;;;;;10400566;28;20478;-63
2022/08/08 13:03:47;;;;;;;;;;;22.30;76.40;;;;;;10400491;28;20509;-63
2022/08/08 13:08:50;;;;;;;3.33;1.02;;;22.40;75.60;;;;;;10400286;28;20396;-62
2022/08/08 13:13:59;;;;;;;3.13;1.10;;;22.40;76.00;;;;;;10400388;28;20482;-62
2022/08/08 13:19:02;;;;;;;2.22;1.13;;;22.50;75.80;;;;;;10399909;28;20069;-62
2022/08/08 13:24:06;;;;;;;1.55;1.00;;;22.60;75.60;;;;;;10399975;28;20056;-67
2022/08/08 13:29:12;;;;;;;2.67;1.13;;;22.40;75.00;;;;;;10399700;28;20135;-66
2022/08/08 13:34:24;;;;;;;2.92;1.08;;;22.30;75.30;;;;;;10399993;28;20131;-63
2022/08/08 13:39:25;;;;;;;2.80;1.10;;;22.30;75.40;;;;;;10398790;28;20484;-64
2022/08/08 13:44:29;;;;;;;3.17;1.20;;;22.30;75.40;;;;;;10398598;28;20043;-63
2022/08/08 13:49:30;;;;;;;3.53;1.13;;;22.20;75.30;;;;;;10398885;28;20468;-63
2022/08/08 13:54:35;;;;;;;4.85;1.20;;;22.20;75.30;;;;;;10398802;28;20123;-62
2022/08/08 13:59:47;;;;;;;1.85;1.00;;;22.30;75.10;;;;;;10398766;28;20026;-63
2022/08/08 14:04:56;;;;;;;0.90;0.88;;;22.60;75.00;;;;;;10398555;28;20080;-63
2022/08/08 14:10:04;;;;;;;1.13;0.88;;;22.80;73.50;;;;;;10398744;28;20449;-63
2022/08/08 14:15:06;;;;;;;1.50;0.70;;;22.90;73.50;;;;;;10398742;28;20037;-63
2022/08/08 14:20:09;;;;;;;1.88;0.90;;;22.90;73.30;;;;;;10380127;28;20033;-67
2022/08/08 14:25:10;;;;;;;2.78;0.90;;;22.90;73.30;;;;;;10398028;28;20050;-63
2022/08/08 14:30:15;;;;;;;1.40;0.85;;;22.90;73.50;;;;;;10398031;28;20403;-62
2022/08/08 14:35:18;;;;;;;2.70;1.10;;;22.90;73.80;;;;;;10397398;28;20377;-63
2022/08/08 14:40:26;;;;;;;2.20;1.08;;;22.70;73.70;;;;;;10397285;28;20070;-62
2022/08/08 14:45:28;;;;;;;1.97;1.00;;;22.60;73.40;;;;;;10396355;28;20055;-62
2022/08/08 14:50:32;;;;;;;1.95;1.15;;;22.40;74.50;;;;;;10395386;28;20302;-65
2022/08/08 14:55:34;;;;;;;2.08;1.40;;;22.10;75.20;;;;;;10396030;28;20034;-63
2022/08/08 15:00:36;;;;;;;1.50;1.40;;;22.20;76.20;;;;;;10396761;28;20439;-63
2022/08/08 15:05:37;;;;;;;2.78;1.40;;;22.10;76.70;;;;;;10396380;28;20053;-63
2022/08/08 15:10:38;;;;;;;1.95;1.50;;;22.00;77.10;;;;;;10394668;28;20029;-64
2022/08/08 15:15:39;;;;;;;2.72;1.50;;;21.80;77.40;;;;;;10396053;28;20026;-64
2022/08/08 15:20:41;;;;;;;3.80;1.42;;;21.80;77.70;;;;;;10396054;28;20068;-64
2022/08/08 15:25:42;;;;;;;2.83;1.42;;;21.80;77.70;;;;;;10395709;28;20091;-64
2022/08/08 15:30:43;;;;;;;1.92;1.40;;;21.80;77.90;;;;;;10395887;28;20108;-63
2022/08/08 15:35:44;;;;;;;1.88;1.52;;;21.80;77.70;;;;;;10395790;28;20030;-63
2022/08/08 15:40:45;;;;;;;2.10;1.23;;;21.80;77.40;;;;;;10395704;28;20055;-65
2022/08/08 15:45:47;;;;;;;1.40;1.30;;;21.80;77.30;;;;;;10394519;28;20108;-63
2022/08/08 15:50:59;;;;;;;1.30;1.20;;;21.80;77.20;;;;;;10377566;28;20504;-63
2022/08/08 15:56:00;;;;;;;2.70;1.23;;;21.80;77.20;;;;;;10394931;28;20030;-63
2022/08/08 16:01:01;;;;;;;1.20;1.10;;;21.90;77.30;;;;;;10395268;28;20451;-64
2022/08/08 16:06:02;;;;;;;1.80;1.10;;;21.90;77.30;;;;;;10394396;28;20026;-65
2022/08/08 16:11:03;;;;;;;3.80;1.40;;;21.90;77.50;;;;;;10394931;28;20053;-63
2022/08/08 16:16:04;;;;;;;6.60;1.20;;;21.80;77.30;;;;;;10394696;28;20048;-64
2022/08/08 16:21:05;;;;;;;1.35;1.08;;;21.90;77.50;;;;;;10394351;28;20070;-67
2022/08/08 16:26:05;;;;;;;2.20;1.20;;;21.70;77.50;;;;;;10393931;28;20029;-66
2022/08/08 16:31:06;;;;;;;2.53;1.50;;;21.70;77.70;;;;;;10394587;28;20096;-69
2022/08/08 16:36:10;;;;;;;1.98;1.33;;;21.60;78.10;;;;;;10394366;28;20037;-65
2022/08/08 16:41:11;;;;;;;2.30;1.42;;;21.50;78.50;;;;;;10394510;28;20137;-64
2022/08/08 16:46:12;;;;;;;1.83;1.45;;;21.50;78.90;;;;;;10394516;28;20033;-64
2022/08/08 16:51:13;;;;;;;3.03;1.65;;;21.50;79.30;;;;;;10393954;28;20017;-63
2022/08/08 16:56:14;;;;;;;1.85;1.45;;;21.50;79.60;;;;;;10393767;28;20045;-65
2022/08/08 17:01:14;;;;;;;1.90;1.50;;;21.50;79.70;;;;;;10393289;28;20054;-66
2022/08/08 17:06:15;;;;;;;3.97;1.90;;;21.40;79.80;;;;;;10392496;28;20041;-65
2022/08/08 17:11:16;;;;;;;3.13;1.52;;;21.40;79.90;;;;;;10392794;28;20431;-64
2022/08/08 17:16:17;;;;;;;3.80;1.60;;;21.40;80.30;;;;;;10378962;28;20014;-65
2022/08/08 17:21:18;;;;;;;5.10;3.15;;;21.40;80.40;;;;;;10399995;28;20046;-65
2022/08/08 17:26:19;;;;;;;5.65;4.30;;;21.40;80.80;;;;;;10399296;28;20026;-65
2022/08/08 17:31:19;;;;;;;3.17;2.10;;;21.30;80.90;;;;;;10399634;28;20030;-66
2022/08/08 17:36:22;;;;;;;16.08;7.97;;;21.20;81.10;;;;;;10398475;28;20025;-66
2022/08/08 17:41:27;;;;;;;3.88;2.00;;;21.10;81.10;;;;;;10399341;28;20041;-67
2022/08/08 17:46:41;;;;;;;3.70;1.70;;;21.10;81.40;;;;;;10399005;28;20032;-65
2022/08/08 17:51:43;;;;;;;2.90;1.60;;;21.10;82.00;;;;;;10399120;28;20041;-65
2022/08/08 17:56:44;;;;;;;2.33;1.50;;;21.10;81.80;;;;;;10398945;28;20038;-65
2022/08/08 18:01:57;;;;;;;1.75;1.33;;;21.10;82.10;;;;;;10398238;28;20058;-65
2022/08/08 18:06:59;;;;;;;2.40;1.42;;;21.00;82.80;;;;;;10398466;28;20445;-66
2022/08/08 18:12:00;;;;;;;4.38;1.63;;;21.00;82.60;;;;;;10398288;28;20034;-65
2022/08/08 18:17:01;;;;;;;3.78;1.70;;;20.90;82.90;;;;;;10397924;28;20022;-64
2022/08/08 18:22:02;;;;;;;2.28;1.50;;;20.80;83.30;;;;;;10398072;28;20034;-64
2022/08/08 18:27:03;;;;;;;2.58;1.48;;;20.70;83.80;;;;;;10397569;28;20029;-65
2022/08/08 18:32:06;;;;;;;1.50;1.40;;;20.60;84.00;;;;;;10397925;28;20128;-65
2022/08/08 18:37:08;;;;;;;1.92;1.48;;;20.60;84.30;;;;;;10397134;28;20074;-64
2022/08/08 18:42:12;;;;;;;3.55;1.90;;;20.50;84.60;;;;;;10397214;28;20506;-64
2022/08/08 18:47:13;;;;;;;5.47;1.70;;;20.50;84.90;;;;;;10397479;28;20453;-65
2022/08/08 18:52:13;;;;;;;3.00;2.08;;;20.50;85.00;;;;;;10396757;28;20099;-64
2022/08/08 18:57:14;;;;;;;4.00;2.08;;;20.40;85.10;;;;;;10396743;28;20026;-65
2022/08/08 19:02:15;;;;;;;2.83;1.98;;;20.30;85.60;;;;;;10396827;28;20455;-64
2022/08/08 19:07:16;;;;;;;2.17;1.80;;;20.30;85.80;;;;;;10396620;28;20078;-65
2022/08/08 19:12:17;;;;;;;2.50;1.90;;;20.20;85.90;;;;;;10396088;28;20145;-65
2022/08/08 19:17:18;;;;;;;2.08;1.70;;;20.10;86.10;;;;;;10396010;28;20057;-65
2022/08/08 19:22:18;;;;;;;2.88;1.70;;;20.00;86.30;;;;;;10396099;28;20045;-65
2022/08/08 19:27:19;;;;;;;2.17;1.65;;;20.00;86.60;;;;;;10396347;28;20022;-65
2022/08/08 19:32:20;;;;;;;3.72;1.60;;;19.90;86.80;;;;;;10396682;28;20465;-65
2022/08/08 19:37:21;;;;;;;5.60;1.83;;;19.90;87.00;;;;;;10395858;28;20057;-65
2022/08/08 19:42:22;;;;;;;6.22;2.85;;;19.70;87.30;;;;;;10394929;28;20034;-65
2022/08/08 19:47:24;;;;;;;4.47;2.05;;;19.60;87.70;;;;;;10399924;28;20070;-66
2022/08/08 19:52:24;;;;;;;3.15;2.22;;;19.60;88.00;;;;;;10404853;28;20041;-65
2022/08/08 19:57:25;;;;;;;2.63;1.92;;;19.60;88.20;;;;;;10405515;28;20161;-67
2022/08/08 20:02:27;;;;;;;3.97;1.92;;;19.80;87.80;;;;;;10405717;28;20042;-68
2022/08/08 20:07:27;;;;;;;4.70;1.80;;;20.00;87.20;;;;;;10406018;28;20026;-66
2022/08/08 20:12:28;;;;;;;7.35;1.70;;;20.10;86.70;;;;;;10405867;28;20382;-67
2022/08/08 20:17:29;;;;;;;2.80;1.75;;;20.30;86.20;;;;;;10405597;28;20109;-68
2022/08/08 20:22:30;;;;;;;2.78;1.90;;;20.40;86.00;;;;;;10405525;28;20124;-66
2022/08/08 20:27:31;;;;;;;5.00;2.47;;;20.50;85.70;;;;;;10405631;28;20040;-70
2022/08/08 20:32:31;;;;;;;2.90;1.92;;;20.50;85.50;;;;;;10404977;28;20191;-66
2022/08/08 20:37:33;;;;;;;2.42;1.98;;;20.60;85.40;;;;;;10405243;28;20079;-66
2022/08/08 20:42:37;;;;;;;4.20;2.13;;;20.60;85.20;;;;;;10404751;28;20117;-66
2022/08/08 20:47:37;;;;;;;1.50;1.40;;;20.60;85.10;;;;;;10405172;28;20038;-66
2022/08/08 20:52:38;;;;;;;2.15;1.52;;;20.60;85.00;;;;;;10410671;28;20427;-66
2022/08/08 20:57:39;;;;;;;2.38;1.48;;;20.60;84.90;;;;;;10411649;28;20032;-66
2022/08/08 21:02:40;;;;;;;2.83;1.70;;;20.60;84.90;;;;;;10411549;28;20049;-66
2022/08/08 21:07:41;;;;;;;3.30;2.05;;;20.60;84.80;;;;;;10411529;28;20017;-66
2022/08/08 21:12:42;;;;;;;3.55;1.80;;;20.60;84.70;;;;;;10411497;28;20033;-66
2022/08/08 21:17:43;;;;;;;3.60;1.70;;;20.60;84.70;;;;;;10411076;28;20112;-72
2022/08/08 21:22:43;;;;;;;2.72;1.77;;;20.60;84.70;;;;;;10410973;28;20030;-66
2022/08/08 21:27:44;;;;;;;2.50;1.60;;;20.60;84.60;;;;;;10410893;28;20033;-67
2022/08/08 21:32:45;;;;;;;1.73;1.50;;;20.60;84.70;;;;;;10410919;28;20025;-66
2022/08/08 21:37:46;;;;;;;2.83;1.90;;;20.60;84.70;;;;;;10410557;28;20030;-68
2022/08/08 21:42:47;;;;;;;2.17;1.50;;;20.60;84.70;;;;;;10410438;28;20049;-67
2022/08/08 21:47:48;;;;;;;3.47;1.75;;;20.60;84.70;;;;;;10410416;28;20197;-69
2022/08/08 21:52:52;;;;;;;1.92;1.70;;;20.50;84.60;;;;;;10410513;28;20045;-67
2022/08/08 21:57:52;;;;;;;1.52;1.42;;;20.50;84.60;;;;;;10409893;28;20025;-67
2022/08/08 22:02:53;;;;;;;2.85;1.65;;;20.50;84.60;;;;;;10408737;28;20053;-70
2022/08/08 22:07:54;;;;;;;2.15;1.60;;;20.50;84.60;;;;;;10409953;28;20049;-67
2022/08/08 22:12:55;;;;;;;2.03;1.50;;;20.50;84.60;;;;;;10409558;28;20057;-67
2022/08/08 22:17:57;;;;;;;2.72;1.52;;;20.50;84.60;;;;;;10408073;28;20034;-71
2022/08/08 22:22:57;;;;;;;2.13;1.88;;;20.40;84.50;;;;;;10409472;28;20098;-67
2022/08/08 22:27:58;;;;;;;1.40;1.30;;;20.40;84.60;;;;;;10409128;28;20075;-72
2022/08/08 22:33:00;;;;;;;3.50;1.60;;;20.40;84.60;;;;;;10407850;28;20037;-68
2022/08/08 22:38:02;;;;;;;3.78;1.40;;;20.40;84.60;;;;;;10409024;28;20458;-67
2022/08/08 22:43:03;;;;;;;2.20;1.45;;;20.40;84.60;;;;;;10408583;28;20098;-67
2022/08/08 22:48:04;;;;;;;2.15;1.80;;;20.30;84.60;;;;;;10408395;28;20025;-66
2022/08/08 22:53:06;;;;;;;2.97;1.50;;;20.30;84.60;;;;;;10408151;28;20027;-67
2022/08/08 22:58:06;;;;;;;3.17;1.77;;;20.30;84.60;;;;;;10408232;28;20032;-67
2022/08/08 23:03:07;;;;;;;1.75;1.50;;;20.30;84.60;;;;;;10407612;28;20071;-67
2022/08/08 23:08:08;;;;;;;3.05;1.33;;;20.20;84.60;;;;;;10407664;28;20124;-71
2022/08/08 23:13:09;;;;;;;1.75;1.63;;;20.20;84.60;;;;;;10406482;28;20037;-68
2022/08/08 23:18:09;;;;;;;1.88;1.40;;;20.20;84.60;;;;;;10407470;28;20101;-67
2022/08/08 23:23:11;;;;;;;1.55;1.45;;;20.20;84.60;;;;;;10407293;28;20048;-67
2022/08/08 23:28:11;;;;;;;1.77;1.40;;;20.20;84.60;;;;;;10407297;28;20454;-68
2022/08/08 23:33:14;;;;;;;1.60;1.50;;;20.20;84.60;;;;;;10407069;28;20029;-67
2022/08/08 23:38:15;;;;;;;2.08;1.40;;;20.10;84.60;;;;;;10407069;28;20083;-67
2022/08/08 23:43:16;;;;;;;3.85;1.75;;;20.10;84.60;;;;;;10406510;28;20041;-69
2022/08/08 23:48:16;;;;;;;1.50;1.40;;;20.10;84.70;;;;;;10406876;28;20082;-67
2022/08/08 23:53:17;;;;;;;2.60;1.45;;;20.10;84.70;;;;;;10406677;28;20025;-68
2022/08/08 23:58:18;;;;;;;1.83;1.63;;;20.00;84.70;;;;;;10406293;28;20066;-67
